Back to Top

Language: 

My Weather Underground Personal Weather Station Historical Data with Graphs...

Delerius Weather Station Historical Data
Daily Summary for January 11, 2018 Units:  Both    English   Metric
« Previous Day
Next Day »
Daily Weekly Monthly Yearly Custom
  High: Low: Average:
Temperature: 45.7 °F /  7.6 °C 40.8 °F /  4.9 °C 43 °F /  6.1 °C
Dew Point: 42.5 °F /  5.8 °C 38.9 °F /  3.8 °C 40.8 °F /  4.9 °C
Humidity: 96% 85% 92%
Wind Speed: 8.0mph /  12.9km/h - 1.9mph /  3.1km/h
Wind Gust: 12.0mph /  19.3km/h - -
Wind- - WNW
Pressure: 30.31 in /  1026.3 hPa 29.83 in /  1010 hPa -
Precipitation: 0.01 in /  0.25 mm    
Historical Graphs
 
 
Tabular Data for January 11, 2018
Time Temperature Dew Point Pressure Wind Wind Speed Wind Gust Humidity Rainfall Rate (Hourly) solar Conditions
00:09 41.4 °F /  5.2 °C 39.5 °F /  4.2 °C 29.83in /  1010hPa NW 1.0mph /  1.6km/h 5.0mph /  8km/h 93% 0.00in /  0mm 0 W/m2
00:18 41.4 °F /  5.2 °C 39.5 °F /  4.2 °C 29.84in /  1010.4hPa WNW 3.0mph /  4.8km/h 6.0mph /  9.7km/h 93% 0.00in /  0mm 0 W/m2
00:23 41.4 °F /  5.2 °C 39.5 °F /  4.2 °C 29.84in /  1010.4hPa NW 1.0mph /  1.6km/h 4.0mph /  6.4km/h 93% 0.00in /  0mm 0 W/m2
00:52 41.4 °F /  5.2 °C 39.5 °F /  4.2 °C 29.85in /  1010.7hPa Calm   1.0mph /  1.6km/h 93% 0.00in /  0mm 0 W/m2
01:23 41.4 °F /  5.2 °C 39.5 °F /  4.2 °C 29.86in /  1011.1hPa NW 2.0mph /  3.2km/h 5.0mph /  8km/h 93% 0.00in /  0mm 0 W/m2
01:28 41.4 °F /  5.2 °C 39.5 °F /  4.2 °C 29.86in /  1011.1hPa NW 1.0mph /  1.6km/h 3.0mph /  4.8km/h 93% 0.00in /  0mm 0 W/m2
01:48 41.4 °F /  5.2 °C 39.5 °F /  4.2 °C 29.87in /  1011.4hPa Calm   4.0mph /  6.4km/h 93% 0.00in /  0mm 0 W/m2
02:08 41.4 °F /  5.2 °C 39.5 °F /  4.2 °C 29.87in /  1011.4hPa NW 2.0mph /  3.2km/h 6.0mph /  9.7km/h 93% 0.00in /  0mm 0 W/m2
02:17 41.4 °F /  5.2 °C 39.5 °F /  4.2 °C 29.88in /  1011.7hPa NW 2.0mph /  3.2km/h 5.0mph /  8km/h 93% 0.00in /  0mm 0 W/m2
02:35 41.4 °F /  5.2 °C 39.5 °F /  4.2 °C 29.89in /  1012.1hPa NW 2.0mph /  3.2km/h 7.0mph /  11.3km/h 93% 0.00in /  0mm 0 W/m2
02:40 41.4 °F /  5.2 °C 39.5 °F /  4.2 °C 29.89in /  1012.1hPa NW 1.0mph /  1.6km/h 4.0mph /  6.4km/h 93% 0.00in /  0mm 0 W/m2
02:49 41.4 °F /  5.2 °C 39.5 °F /  4.2 °C 29.89in /  1012.1hPa NW 2.0mph /  3.2km/h 5.0mph /  8km/h 93% 0.00in /  0mm 0 W/m2
02:57 41.4 °F /  5.2 °C 39.5 °F /  4.2 °C 29.90in /  1012.4hPa Calm   2.0mph /  3.2km/h 93% 0.00in /  0mm 0 W/m2
03:09 41.4 °F /  5.2 °C 39.5 °F /  4.2 °C 29.90in /  1012.4hPa NW 2.0mph /  3.2km/h 5.0mph /  8km/h 93% 0.00in /  0mm 0 W/m2
03:18 41.4 °F /  5.2 °C 39.5 °F /  4.2 °C 29.90in /  1012.4hPa Calm     93% 0.00in /  0mm 0 W/m2
03:31 41.4 °F /  5.2 °C 39.5 °F /  4.2 °C 29.91in /  1012.8hPa Calm   2.0mph /  3.2km/h 93% 0.00in /  0mm 0 W/m2
03:36 41.4 °F /  5.2 °C 39.5 °F /  4.2 °C 29.91in /  1012.8hPa Calm   1.0mph /  1.6km/h 93% 0.00in /  0mm 0 W/m2
03:41 41.4 °F /  5.2 °C 39.5 °F /  4.2 °C 29.91in /  1012.8hPa NW 2.0mph /  3.2km/h 6.0mph /  9.7km/h 93% 0.00in /  0mm 0 W/m2
03:46 41.4 °F /  5.2 °C 39.5 °F /  4.2 °C 29.91in /  1012.8hPa WNW 1.0mph /  1.6km/h 4.0mph /  6.4km/h 93% 0.00in /  0mm 0 W/m2
03:55 41.4 °F /  5.2 °C 39.5 °F /  4.2 °C 29.91in /  1012.8hPa WNW 1.0mph /  1.6km/h 2.0mph /  3.2km/h 93% 0.00in /  0mm 0 W/m2
04:06 41.4 °F /  5.2 °C 39.5 °F /  4.2 °C 29.92in /  1013.1hPa WNW 1.0mph /  1.6km/h 2.0mph /  3.2km/h 93% 0.00in /  0mm 0 W/m2
04:11 41.4 °F /  5.2 °C 39.5 °F /  4.2 °C 29.92in /  1013.1hPa WNW 1.0mph /  1.6km/h 2.0mph /  3.2km/h 93% 0.00in /  0mm 0 W/m2
04:16 41.4 °F /  5.2 °C 39.5 °F /  4.2 °C 29.92in /  1013.1hPa Calm   1.0mph /  1.6km/h 93% 0.00in /  0mm 0 W/m2
04:25 41.4 °F /  5.2 °C 39.5 °F /  4.2 °C 29.93in /  1013.4hPa Calm   1.0mph /  1.6km/h 93% 0.00in /  0mm 0 W/m2
04:33 41.2 °F /  5.1 °C 39.3 °F /  4.1 °C 29.93in /  1013.4hPa WNW 1.0mph /  1.6km/h 2.0mph /  3.2km/h 93% 0.00in /  0mm 0 W/m2
04:38 41.2 °F /  5.1 °C 39.3 °F /  4.1 °C 29.94in /  1013.8hPa Calm     93% 0.00in /  0mm 0 W/m2
04:43 41.2 °F /  5.1 °C 39.3 °F /  4.1 °C 29.94in /  1013.8hPa Calm     93% 0.00in /  0mm 0 W/m2
04:50 41.2 °F /  5.1 °C 39.3 °F /  4.1 °C 29.94in /  1013.8hPa WNW 1.0mph /  1.6km/h 3.0mph /  4.8km/h 93% 0.00in /  0mm 0 W/m2
04:58 41.2 °F /  5.1 °C 39.3 °F /  4.1 °C 29.94in /  1013.8hPa WNW 1.0mph /  1.6km/h 4.0mph /  6.4km/h 93% 0.00in /  0mm 0 W/m2
05:13 41.2 °F /  5.1 °C 39.3 °F /  4.1 °C 29.95in /  1014.1hPa Calm     93% 0.00in /  0mm 0 W/m2
05:39 41.2 °F /  5.1 °C 39.3 °F /  4.1 °C 29.97in /  1014.8hPa Calm     93% 0.00in /  0mm 0 W/m2
05:44 41.0 °F /  5 °C 39.1 °F /  3.9 °C 29.97in /  1014.8hPa Calm     93% 0.00in /  0mm 0 W/m2
05:49 41.0 °F /  5 °C 38.9 °F /  3.8 °C 29.97in /  1014.8hPa Calm     92% 0.00in /  0mm 0 W/m2
05:56 41.0 °F /  5 °C 39.1 °F /  3.9 °C 29.98in /  1015.1hPa Calm     93% 0.00in /  0mm 0 W/m2
06:06 40.8 °F /  4.9 °C 39.0 °F /  3.9 °C 29.98in /  1015.1hPa Calm     93% 0.00in /  0mm 0 W/m2
06:11 41.0 °F /  5 °C 39.1 °F /  3.9 °C 29.99in /  1015.5hPa Calm   3.0mph /  4.8km/h 93% 0.00in /  0mm 0 W/m2
06:16 41.0 °F /  5 °C 39.1 °F /  3.9 °C 29.99in /  1015.5hPa NW 1.0mph /  1.6km/h 4.0mph /  6.4km/h 93% 0.00in /  0mm 0 W/m2
06:24 41.2 °F /  5.1 °C 39.3 °F /  4.1 °C 30.00in /  1015.8hPa NNW 1.0mph /  1.6km/h 4.0mph /  6.4km/h 93% 0.00in /  0mm 0 W/m2
06:30 41.4 °F /  5.2 °C 39.5 °F /  4.2 °C 30.00in /  1015.8hPa NNW 3.0mph /  4.8km/h 7.0mph /  11.3km/h 93% 0.00in /  0mm 0 W/m2
06:36 41.5 °F /  5.3 °C 39.7 °F /  4.3 °C 30.00in /  1015.8hPa Calm   1.0mph /  1.6km/h 93% 0.00in /  0mm 0 W/m2
06:41 41.5 °F /  5.3 °C 39.7 °F /  4.3 °C 30.00in /  1015.8hPa Calm   2.0mph /  3.2km/h 93% 0.00in /  0mm 0 W/m2
06:50 41.5 °F /  5.3 °C 39.7 °F /  4.3 °C 30.01in /  1016.1hPa NNW 2.0mph /  3.2km/h 5.0mph /  8km/h 93% 0.00in /  0mm 0 W/m2
07:08 41.7 °F /  5.4 °C 39.8 °F /  4.3 °C 30.02in /  1016.5hPa NNW 1.0mph /  1.6km/h 3.0mph /  4.8km/h 93% 0.00in /  0mm 0 W/m2
07:16 41.9 °F /  5.5 °C 39.7 °F /  4.3 °C 30.02in /  1016.5hPa NNW 1.0mph /  1.6km/h 3.0mph /  4.8km/h 92% 0.00in /  0mm 0 W/m2
07:21 41.9 °F /  5.5 °C 39.7 °F /  4.3 °C 30.02in /  1016.5hPa NNW 1.0mph /  1.6km/h 3.0mph /  4.8km/h 92% 0.00in /  0mm 0 W/m2
07:26 41.9 °F /  5.5 °C 40.0 °F /  4.4 °C 30.02in /  1016.5hPa NNW 2.0mph /  3.2km/h 5.0mph /  8km/h 93% 0.00in /  0mm 0 W/m2
07:43 41.9 °F /  5.5 °C 40.0 °F /  4.4 °C 30.03in /  1016.8hPa Calm   1.0mph /  1.6km/h 93% 0.00in /  0mm 0 W/m2
07:48 41.9 °F /  5.5 °C 40.0 °F /  4.4 °C 30.03in /  1016.8hPa NW 1.0mph /  1.6km/h 2.0mph /  3.2km/h 93% 0.00in /  0mm 0 W/m2
07:54 41.9 °F /  5.5 °C 40.0 °F /  4.4 °C 30.03in /  1016.8hPa Calm   2.0mph /  3.2km/h 93% 0.00in /  0mm 0 W/m2
07:59 41.9 °F /  5.5 °C 40.0 °F /  4.4 °C 30.04in /  1017.2hPa NW 1.0mph /  1.6km/h 3.0mph /  4.8km/h 93% 0.00in /  0mm 0 W/m2
08:08 41.9 °F /  5.5 °C 40.0 °F /  4.4 °C 30.05in /  1017.5hPa NW 1.0mph /  1.6km/h 2.0mph /  3.2km/h 93% 0.00in /  0mm 0 W/m2
08:14 41.9 °F /  5.5 °C 40.0 °F /  4.4 °C 30.05in /  1017.5hPa WNW 1.0mph /  1.6km/h 4.0mph /  6.4km/h 93% 0.00in /  0mm 0 W/m2
08:21 42.1 °F /  5.6 °C 40.2 °F /  4.6 °C 30.05in /  1017.5hPa NW 3.0mph /  4.8km/h 5.0mph /  8km/h 93% 0.00in /  0mm 0 W/m2
08:31 42.1 °F /  5.6 °C 40.2 °F /  4.6 °C 30.05in /  1017.5hPa NW 3.0mph /  4.8km/h 7.0mph /  11.3km/h 93% 0.00in /  0mm 0 W/m2
08:37 41.9 °F /  5.5 °C 40.0 °F /  4.4 °C 30.05in /  1017.5hPa NW 2.0mph /  3.2km/h 5.0mph /  8km/h 93% 0.00in /  0mm 0 W/m2
08:42 41.9 °F /  5.5 °C 40.0 °F /  4.4 °C 30.06in /  1017.8hPa NW 4.0mph /  6.4km/h 7.0mph /  11.3km/h 93% 0.00in /  0mm 5 W/m2
08:51 42.1 °F /  5.6 °C 40.2 °F /  4.6 °C 30.06in /  1017.8hPa WNW 2.0mph /  3.2km/h 5.0mph /  8km/h 93% 0.00in /  0mm 7 W/m2
08:56 41.9 °F /  5.5 °C 40.0 °F /  4.4 °C 30.07in /  1018.2hPa NW 3.0mph /  4.8km/h 6.0mph /  9.7km/h 93% 0.00in /  0mm 11 W/m2
09:24 41.9 °F /  5.5 °C 39.7 °F /  4.3 °C 30.07in /  1018.2hPa NW 5.0mph /  8km/h 10.0mph /  16.1km/h 92% 0.00in /  0mm 37 W/m2
09:41 42.3 °F /  5.7 °C 39.8 °F /  4.3 °C 30.08in /  1018.5hPa WNW 5.0mph /  8km/h 9.0mph /  14.5km/h 91% 0.00in /  0mm 51 W/m2
09:47 42.4 °F /  5.8 °C 40.0 °F /  4.4 °C 30.08in /  1018.5hPa WNW 5.0mph /  8km/h 8.0mph /  12.9km/h 91% 0.00in /  0mm 51 W/m2
09:59 42.8 °F /  6 °C 40.1 °F /  4.5 °C 30.09in /  1018.8hPa WNW 6.0mph /  9.7km/h 9.0mph /  14.5km/h 90% 0.00in /  0mm 51 W/m2
10:07 43.0 °F /  6.1 °C 40.2 °F /  4.6 °C 30.09in /  1018.8hPa NW 7.0mph /  11.3km/h 10.0mph /  16.1km/h 90% 0.00in /  0mm 47 W/m2
10:15 43.0 °F /  6.1 °C 40.0 °F /  4.4 °C 30.10in /  1019.2hPa NW 6.0mph /  9.7km/h 9.0mph /  14.5km/h 89% 0.00in /  0mm 53 W/m2
10:38 43.3 °F /  6.3 °C 39.7 °F /  4.3 °C 30.11in /  1019.5hPa NW 6.0mph /  9.7km/h 11.0mph /  17.7km/h 87% 0.00in /  0mm 49 W/m2
10:44 43.3 °F /  6.3 °C 39.7 °F /  4.3 °C 30.11in /  1019.5hPa NW 7.0mph /  11.3km/h 12.0mph /  19.3km/h 87% 0.00in /  0mm 53 W/m2
10:55 43.5 °F /  6.4 °C 39.6 °F /  4.2 °C 30.12in /  1019.9hPa NW 8.0mph /  12.9km/h 11.0mph /  17.7km/h 86% 0.00in /  0mm 62 W/m2
11:04 43.5 °F /  6.4 °C 39.6 °F /  4.2 °C 30.12in /  1019.9hPa NW 7.0mph /  11.3km/h 10.0mph /  16.1km/h 86% 0.00in /  0mm 79 W/m2
11:11 43.9 °F /  6.6 °C 40.0 °F /  4.4 °C 30.12in /  1019.9hPa NW 6.0mph /  9.7km/h 11.0mph /  17.7km/h 86% 0.00in /  0mm 77 W/m2
11:30 43.9 °F /  6.6 °C 39.7 °F /  4.3 °C 30.12in /  1019.9hPa NW 7.0mph /  11.3km/h 11.0mph /  17.7km/h 85% 0.00in /  0mm 54 W/m2
11:45 44.1 °F /  6.7 °C 39.8 °F /  4.3 °C 30.12in /  1019.9hPa NNW 7.0mph /  11.3km/h 10.0mph /  16.1km/h 85% 0.00in /  0mm 58 W/m2
11:52 44.1 °F /  6.7 °C 40.1 °F /  4.5 °C 30.11in /  1019.5hPa NW 7.0mph /  11.3km/h 11.0mph /  17.7km/h 86% 0.00in /  0mm 46 W/m2
11:59 44.1 °F /  6.7 °C 40.1 °F /  4.5 °C 30.11in /  1019.5hPa NNW 6.0mph /  9.7km/h 9.0mph /  14.5km/h 86% 0.00in /  0mm 76 W/m2
12:10 44.2 °F /  6.8 °C 40.3 °F /  4.6 °C 30.12in /  1019.9hPa NW 7.0mph /  11.3km/h 10.0mph /  16.1km/h 86% 0.00in /  0mm 86 W/m2
12:19 44.4 °F /  6.9 °C 40.5 °F /  4.7 °C 30.12in /  1019.9hPa North 3.0mph /  4.8km/h 8.0mph /  12.9km/h 86% 0.00in /  0mm 114 W/m2
12:27 44.8 °F /  7.1 °C 40.8 °F /  4.9 °C 30.12in /  1019.9hPa NNW 4.0mph /  6.4km/h 9.0mph /  14.5km/h 86% 0.00in /  0mm 146 W/m2
12:33 44.8 °F /  7.1 °C 40.5 °F /  4.7 °C 30.13in /  1020.2hPa North 5.0mph /  8km/h 9.0mph /  14.5km/h 85% 0.00in /  0mm 120 W/m2
12:48 44.8 °F /  7.1 °C 40.5 °F /  4.7 °C 30.13in /  1020.2hPa NW 5.0mph /  8km/h 9.0mph /  14.5km/h 85% 0.00in /  0mm 111 W/m2
12:55 44.8 °F /  7.1 °C 40.8 °F /  4.9 °C 30.13in /  1020.2hPa NW 3.0mph /  4.8km/h 8.0mph /  12.9km/h 86% 0.00in /  0mm 125 W/m2
13:00 45.0 °F /  7.2 °C 41.0 °F /  5 °C 30.13in /  1020.2hPa NW 3.0mph /  4.8km/h 6.0mph /  9.7km/h 86% 0.00in /  0mm 105 W/m2
13:17 45.1 °F /  7.3 °C 40.9 °F /  4.9 °C 30.14in /  1020.5hPa NNW 3.0mph /  4.8km/h 7.0mph /  11.3km/h 85% 0.00in /  0mm 153 W/m2
13:26 45.3 °F /  7.4 °C 41.4 °F /  5.2 °C 30.13in /  1020.2hPa NW 2.0mph /  3.2km/h 7.0mph /  11.3km/h 86% 0.00in /  0mm 267 W/m2
13:33 45.5 °F /  7.5 °C 41.3 °F /  5.2 °C 30.14in /  1020.5hPa North 2.0mph /  3.2km/h 4.0mph /  6.4km/h 85% 0.00in /  0mm 137 W/m2
13:42 45.7 °F /  7.6 °C 41.4 °F /  5.2 °C 30.14in /  1020.5hPa North 4.0mph /  6.4km/h 6.0mph /  9.7km/h 85% 0.00in /  0mm 156 W/m2
13:49 45.7 °F /  7.6 °C 41.4 °F /  5.2 °C 30.14in /  1020.5hPa North 2.0mph /  3.2km/h 5.0mph /  8km/h 85% 0.00in /  0mm 107 W/m2
13:58 45.7 °F /  7.6 °C 41.4 °F /  5.2 °C 30.14in /  1020.5hPa NNW 1.0mph /  1.6km/h 5.0mph /  8km/h 85% 0.00in /  0mm 93 W/m2
14:11 45.3 °F /  7.4 °C 41.4 °F /  5.2 °C 30.15in /  1020.9hPa North 2.0mph /  3.2km/h 5.0mph /  8km/h 86% 0.00in /  0mm 63 W/m2
14:25 45.1 °F /  7.3 °C 41.5 °F /  5.3 °C 30.16in /  1021.2hPa NW 4.0mph /  6.4km/h 7.0mph /  11.3km/h 87% 0.00in /  0mm 40 W/m2
14:33 45.1 °F /  7.3 °C 41.5 °F /  5.3 °C 30.16in /  1021.2hPa NNW 4.0mph /  6.4km/h 7.0mph /  11.3km/h 87% 0.00in /  0mm 32 W/m2
14:47 45.0 °F /  7.2 °C 41.3 °F /  5.2 °C 30.17in /  1021.6hPa NW 3.0mph /  4.8km/h 7.0mph /  11.3km/h 87% 0.00in /  0mm 11 W/m2
14:53 45.0 °F /  7.2 °C 41.6 °F /  5.3 °C 30.17in /  1021.6hPa NW 5.0mph /  8km/h 8.0mph /  12.9km/h 88% 0.00in /  0mm 12 W/m2
15:05 44.8 °F /  7.1 °C 41.4 °F /  5.2 °C 30.18in /  1021.9hPa NW 5.0mph /  8km/h 7.0mph /  11.3km/h 88% 0.00in /  0mm 7 W/m2
15:10 44.8 °F /  7.1 °C 41.4 °F /  5.2 °C 30.18in /  1021.9hPa NW 2.0mph /  3.2km/h 5.0mph /  8km/h 88% 0.00in /  0mm 5 W/m2
15:16 44.8 °F /  7.1 °C 41.7 °F /  5.4 °C 30.18in /  1021.9hPa WNW 2.0mph /  3.2km/h 7.0mph /  11.3km/h 89% 0.00in /  0mm 5 W/m2
15:30 44.6 °F /  7 °C 41.8 °F /  5.4 °C 30.19in /  1022.2hPa WNW 2.0mph /  3.2km/h 6.0mph /  9.7km/h 90% 0.00in /  0mm 0 W/m2
15:35 44.4 °F /  6.9 °C 41.7 °F /  5.4 °C 30.19in /  1022.2hPa NW 3.0mph /  4.8km/h 6.0mph /  9.7km/h 90% 0.00in /  0mm 0 W/m2
15:42 44.4 °F /  6.9 °C 41.7 °F /  5.4 °C 30.19in /  1022.2hPa Calm   2.0mph /  3.2km/h 90% 0.01in /  0.25mm 0 W/m2
15:46 44.2 °F /  6.8 °C 41.8 °F /  5.4 °C 30.19in /  1022.2hPa NW 2.0mph /  3.2km/h 4.0mph /  6.4km/h 91% 0.01in /  0.25mm 0 W/m2
16:10 44.1 °F /  6.7 °C 41.9 °F /  5.5 °C 30.21in /  1022.9hPa NW 5.0mph /  8km/h 8.0mph /  12.9km/h 92% 0.01in /  0.25mm 0 W/m2
16:21 44.1 °F /  6.7 °C 41.9 °F /  5.5 °C 30.21in /  1022.9hPa NW 3.0mph /  4.8km/h 5.0mph /  8km/h 92% 0.01in /  0.25mm 0 W/m2
16:27 44.1 °F /  6.7 °C 42.2 °F /  5.7 °C 30.22in /  1023.2hPa NW 2.0mph /  3.2km/h 5.0mph /  8km/h 93% 0.01in /  0.25mm 0 W/m2
16:32 44.1 °F /  6.7 °C 42.2 °F /  5.7 °C 30.22in /  1023.2hPa WNW 3.0mph /  4.8km/h 6.0mph /  9.7km/h 93% 0.01in /  0.25mm 0 W/m2
16:45 43.9 °F /  6.6 °C 42.0 °F /  5.6 °C 30.22in /  1023.2hPa NW 2.0mph /  3.2km/h 5.0mph /  8km/h 93% 0.00in /  0mm 0 W/m2
16:51 43.9 °F /  6.6 °C 42.0 °F /  5.6 °C 30.23in /  1023.6hPa NW 3.0mph /  4.8km/h 8.0mph /  12.9km/h 93% 0.00in /  0mm 0 W/m2
16:56 43.9 °F /  6.6 °C 42.0 °F /  5.6 °C 30.23in /  1023.6hPa NW 3.0mph /  4.8km/h 7.0mph /  11.3km/h 93% 0.00in /  0mm 0 W/m2
17:02 43.9 °F /  6.6 °C 42.0 °F /  5.6 °C 30.23in /  1023.6hPa NW 3.0mph /  4.8km/h 8.0mph /  12.9km/h 93% 0.00in /  0mm 0 W/m2
17:09 43.9 °F /  6.6 °C 42.0 °F /  5.6 °C 30.23in /  1023.6hPa NNW 1.0mph /  1.6km/h 5.0mph /  8km/h 93% 0.00in /  0mm 0 W/m2
17:18 43.7 °F /  6.5 °C 42.1 °F /  5.6 °C 30.23in /  1023.6hPa NW 3.0mph /  4.8km/h 5.0mph /  8km/h 94% 0.00in /  0mm 0 W/m2
17:23 43.7 °F /  6.5 °C 42.1 °F /  5.6 °C 30.23in /  1023.6hPa NW 1.0mph /  1.6km/h 5.0mph /  8km/h 94% 0.00in /  0mm 0 W/m2
17:28 43.7 °F /  6.5 °C 42.1 °F /  5.6 °C 30.23in /  1023.6hPa NW 3.0mph /  4.8km/h 5.0mph /  8km/h 94% 0.00in /  0mm 0 W/m2
17:34 43.7 °F /  6.5 °C 42.1 °F /  5.6 °C 30.24in /  1023.9hPa NW 4.0mph /  6.4km/h 6.0mph /  9.7km/h 94% 0.00in /  0mm 0 W/m2
17:39 43.7 °F /  6.5 °C 42.1 °F /  5.6 °C 30.24in /  1023.9hPa NNW 1.0mph /  1.6km/h 2.0mph /  3.2km/h 94% 0.00in /  0mm 0 W/m2
17:50 43.9 °F /  6.6 °C 42.3 °F /  5.7 °C 30.24in /  1023.9hPa NNW 1.0mph /  1.6km/h 5.0mph /  8km/h 94% 0.00in /  0mm 0 W/m2
17:58 43.9 °F /  6.6 °C 42.3 °F /  5.7 °C 30.24in /  1023.9hPa North 1.0mph /  1.6km/h 6.0mph /  9.7km/h 94% 0.00in /  0mm 0 W/m2
18:03 43.9 °F /  6.6 °C 42.3 °F /  5.7 °C 30.24in /  1023.9hPa Calm   4.0mph /  6.4km/h 94% 0.00in /  0mm 0 W/m2
18:18 43.7 °F /  6.5 °C 42.1 °F /  5.6 °C 30.24in /  1023.9hPa Calm   1.0mph /  1.6km/h 94% 0.00in /  0mm 0 W/m2
18:23 43.7 °F /  6.5 °C 41.8 °F /  5.4 °C 30.24in /  1023.9hPa Calm   1.0mph /  1.6km/h 93% 0.00in /  0mm 0 W/m2
18:38 43.7 °F /  6.5 °C 41.8 °F /  5.4 °C 30.24in /  1023.9hPa NNE 1.0mph /  1.6km/h 4.0mph /  6.4km/h 93% 0.00in /  0mm 0 W/m2
18:47 43.9 °F /  6.6 °C 42.3 °F /  5.7 °C 30.24in /  1023.9hPa Calm   2.0mph /  3.2km/h 94% 0.00in /  0mm 0 W/m2
18:52 43.9 °F /  6.6 °C 42.3 °F /  5.7 °C 30.24in /  1023.9hPa NNE 1.0mph /  1.6km/h 3.0mph /  4.8km/h 94% 0.00in /  0mm 0 W/m2
19:28 43.9 °F /  6.6 °C 42.3 °F /  5.7 °C 30.26in /  1024.6hPa NE 1.0mph /  1.6km/h 5.0mph /  8km/h 94% 0.00in /  0mm 0 W/m2
20:02 43.9 °F /  6.6 °C 42.5 °F /  5.8 °C 30.27in /  1024.9hPa North 1.0mph /  1.6km/h 4.0mph /  6.4km/h 95% 0.00in /  0mm 0 W/m2
20:07 43.9 °F /  6.6 °C 42.5 °F /  5.8 °C 30.27in /  1024.9hPa North 3.0mph /  4.8km/h 7.0mph /  11.3km/h 95% 0.00in /  0mm 0 W/m2
20:12 43.9 °F /  6.6 °C 42.5 °F /  5.8 °C 30.28in /  1025.3hPa Calm   1.0mph /  1.6km/h 95% 0.00in /  0mm 0 W/m2
20:18 43.9 °F /  6.6 °C 42.5 °F /  5.8 °C 30.27in /  1024.9hPa Calm   2.0mph /  3.2km/h 95% 0.00in /  0mm 0 W/m2
20:23 43.9 °F /  6.6 °C 42.5 °F /  5.8 °C 30.28in /  1025.3hPa Calm   2.0mph /  3.2km/h 95% 0.00in /  0mm 0 W/m2
20:30 43.9 °F /  6.6 °C 42.5 °F /  5.8 °C 30.28in /  1025.3hPa Calm   1.0mph /  1.6km/h 95% 0.00in /  0mm 0 W/m2
20:40 43.9 °F /  6.6 °C 42.5 °F /  5.8 °C 30.28in /  1025.3hPa Calm   1.0mph /  1.6km/h 95% 0.00in /  0mm 0 W/m2
20:57 43.7 °F /  6.5 °C 42.4 °F /  5.8 °C 30.28in /  1025.3hPa Calm   1.0mph /  1.6km/h 95% 0.00in /  0mm 0 W/m2
21:05 43.7 °F /  6.5 °C 42.4 °F /  5.8 °C 30.29in /  1025.6hPa Calm   2.0mph /  3.2km/h 95% 0.00in /  0mm 0 W/m2
21:15 43.7 °F /  6.5 °C 42.4 °F /  5.8 °C 30.29in /  1025.6hPa Calm   1.0mph /  1.6km/h 95% 0.00in /  0mm 0 W/m2
21:23 43.9 °F /  6.6 °C 42.5 °F /  5.8 °C 30.30in /  1026hPa NNW 4.0mph /  6.4km/h 7.0mph /  11.3km/h 95% 0.00in /  0mm 0 W/m2
21:28 43.9 °F /  6.6 °C 42.5 °F /  5.8 °C 30.30in /  1026hPa NNW 1.0mph /  1.6km/h 4.0mph /  6.4km/h 95% 0.00in /  0mm 0 W/m2
22:05 43.3 °F /  6.3 °C 42.0 °F /  5.6 °C 30.31in /  1026.3hPa Calm   2.0mph /  3.2km/h 95% 0.00in /  0mm 0 W/m2
22:12 43.3 °F /  6.3 °C 42.0 °F /  5.6 °C 30.31in /  1026.3hPa Calm   2.0mph /  3.2km/h 95% 0.00in /  0mm 0 W/m2
22:20 43.3 °F /  6.3 °C 42.0 °F /  5.6 °C 30.31in /  1026.3hPa NNW 1.0mph /  1.6km/h 5.0mph /  8km/h 95% 0.00in /  0mm 0 W/m2
22:34 43.2 °F /  6.2 °C 41.8 °F /  5.4 °C 30.31in /  1026.3hPa Calm   2.0mph /  3.2km/h 95% 0.00in /  0mm 0 W/m2
22:46 43.2 °F /  6.2 °C 41.8 °F /  5.4 °C 30.30in /  1026hPa Calm   1.0mph /  1.6km/h 95% 0.00in /  0mm 0 W/m2
22:54 43.3 °F /  6.3 °C 42.3 °F /  5.7 °C 30.30in /  1026hPa Calm     96% 0.00in /  0mm 0 W/m2
22:59 43.3 °F /  6.3 °C 42.3 °F /  5.7 °C 30.30in /  1026hPa Calm     96% 0.00in /  0mm 0 W/m2
23:03 43.3 °F /  6.3 °C 42.3 °F /  5.7 °C 30.30in /  1026hPa Calm     96% 0.00in /  0mm 0 W/m2
23:16 43.3 °F /  6.3 °C 42.3 °F /  5.7 °C 30.30in /  1026hPa Calm     96% 0.00in /  0mm 0 W/m2
23:21 43.3 °F /  6.3 °C 42.3 °F /  5.7 °C 30.30in /  1026hPa Calm   2.0mph /  3.2km/h 96% 0.00in /  0mm 0 W/m2
23:28 43.3 °F /  6.3 °C 42.3 °F /  5.7 °C 30.30in /  1026hPa Calm     96% 0.00in /  0mm 0 W/m2
23:36 43.3 °F /  6.3 °C 42.3 °F /  5.7 °C 30.31in /  1026.3hPa Calm     96% 0.00in /  0mm 0 W/m2
23:41 43.3 °F /  6.3 °C 42.3 °F /  5.7 °C 30.30in /  1026hPa Calm     96% 0.00in /  0mm 0 W/m2
23:44 43.3 °F /  6.3 °C 42.3 °F /  5.7 °C 30.31in /  1026.3hPa Calm     96% 0.00in /  0mm 0 W/m2
23:49 43.3 °F /  6.3 °C 42.3 °F /  5.7 °C 30.31in /  1026.3hPa Calm     96% 0.00in /  0mm 0 W/m2
23:54 43.3 °F /  6.3 °C 42.3 °F /  5.7 °C 30.31in /  1026.3hPa Calm     96% 0.00in /  0mm 0 W/m2
Delerius Weather

Data updates at regular intervals.